sensor_id;sensor_type;location;lat;lon;timestamp;P1;durP1;ratioP1;P2;durP2;ratioP2
18445;SDS011;9352;50.888;4.466;2023-01-13T00:00:12;3.63;;;1.50;;
18445;SDS011;9352;50.888;4.466;2023-01-13T00:02:40;10.10;;;1.50;;
18445;SDS011;9352;50.888;4.466;2023-01-13T00:05:07;12.20;;;2.10;;
18445;SDS011;9352;50.888;4.466;2023-01-13T00:07:34;8.55;;;1.92;;
18445;SDS011;9352;50.888;4.466;2023-01-13T00:10:04;12.55;;;1.77;;
18445;SDS011;9352;50.888;4.466;2023-01-13T00:12:32;13.95;;;2.17;;
18445;SDS011;9352;50.888;4.466;2023-01-13T00:14:59;5.88;;;1.63;;
18445;SDS011;9352;50.888;4.466;2023-01-13T00:17:25;12.32;;;1.70;;
18445;SDS011;9352;50.888;4.466;2023-01-13T00:19:52;9.57;;;2.17;;
18445;SDS011;9352;50.888;4.466;2023-01-13T00:22:20;13.13;;;2.00;;
18445;SDS011;9352;50.888;4.466;2023-01-13T00:24:47;7.75;;;1.70;;
18445;SDS011;9352;50.888;4.466;2023-01-13T00:27:15;18.20;;;2.30;;
18445;SDS011;9352;50.888;4.466;2023-01-13T00:29:42;10.77;;;2.28;;
18445;SDS011;9352;50.888;4.466;2023-01-13T00:32:09;20.85;;;2.33;;
18445;SDS011;9352;50.888;4.466;2023-01-13T00:34:36;10.48;;;1.90;;
18445;SDS011;9352;50.888;4.466;2023-01-13T00:37:03;7.63;;;2.00;;
18445;SDS011;9352;50.888;4.466;2023-01-13T00:39:30;13.40;;;2.63;;
18445;SDS011;9352;50.888;4.466;2023-01-13T00:41:56;16.88;;;2.25;;
18445;SDS011;9352;50.888;4.466;2023-01-13T00:44:42;26.08;;;3.22;;
18445;SDS011;9352;50.888;4.466;2023-01-13T00:47:09;19.65;;;2.95;;
18445;SDS011;9352;50.888;4.466;2023-01-13T00:49:36;17.48;;;2.72;;
18445;SDS011;9352;50.888;4.466;2023-01-13T00:52:03;10.18;;;2.10;;
18445;SDS011;9352;50.888;4.466;2023-01-13T00:54:30;10.75;;;2.38;;
18445;SDS011;9352;50.888;4.466;2023-01-13T00:56:57;13.32;;;2.25;;
18445;SDS011;9352;50.888;4.466;2023-01-13T00:59:24;23.88;;;2.45;;
18445;SDS011;9352;50.888;4.466;2023-01-13T01:01:52;15.80;;;2.65;;
18445;SDS011;9352;50.888;4.466;2023-01-13T01:04:19;18.30;;;2.60;;
18445;SDS011;9352;50.888;4.466;2023-01-13T01:06:46;24.13;;;2.53;;
18445;SDS011;9352;50.888;4.466;2023-01-13T01:09:14;17.92;;;2.40;;
18445;SDS011;9352;50.888;4.466;2023-01-13T01:11:41;14.50;;;2.15;;
18445;SDS011;9352;50.888;4.466;2023-01-13T01:14:09;22.80;;;3.20;;
18445;SDS011;9352;50.888;4.466;2023-01-13T01:16:38;15.30;;;2.80;;
18445;SDS011;9352;50.888;4.466;2023-01-13T01:19:08;16.90;;;2.58;;
18445;SDS011;9352;50.888;4.466;2023-01-13T01:21:35;14.38;;;2.58;;
18445;SDS011;9352;50.888;4.466;2023-01-13T01:24:02;17.23;;;2.28;;
18445;SDS011;9352;50.888;4.466;2023-01-13T01:26:30;22.23;;;2.38;;
18445;SDS011;9352;50.888;4.466;2023-01-13T01:28:57;13.27;;;2.47;;
18445;SDS011;9352;50.888;4.466;2023-01-13T01:31:26;15.52;;;2.35;;
18445;SDS011;9352;50.888;4.466;2023-01-13T01:33:55;18.20;;;2.63;;
18445;SDS011;9352;50.888;4.466;2023-01-13T01:36:24;18.38;;;2.20;;
18445;SDS011;9352;50.888;4.466;2023-01-13T01:38:54;16.58;;;2.15;;
18445;SDS011;9352;50.888;4.466;2023-01-13T01:41:22;14.70;;;2.03;;
18445;SDS011;9352;50.888;4.466;2023-01-13T01:43:51;17.02;;;2.78;;
18445;SDS011;9352;50.888;4.466;2023-01-13T01:46:26;14.65;;;2.10;;
18445;SDS011;9352;50.888;4.466;2023-01-13T01:48:56;16.45;;;2.25;;
18445;SDS011;9352;50.888;4.466;2023-01-13T01:51:30;18.33;;;2.67;;
18445;SDS011;9352;50.888;4.466;2023-01-13T01:54:01;12.02;;;2.15;;
18445;SDS011;9352;50.888;4.466;2023-01-13T01:56:31;13.30;;;2.55;;
18445;SDS011;9352;50.888;4.466;2023-01-13T01:58:59;17.08;;;2.55;;
18445;SDS011;9352;50.888;4.466;2023-01-13T02:01:26;14.73;;;2.13;;
18445;SDS011;9352;50.888;4.466;2023-01-13T02:03:55;15.43;;;2.25;;
18445;SDS011;9352;50.888;4.466;2023-01-13T02:06:24;16.35;;;2.50;;
18445;SDS011;9352;50.888;4.466;2023-01-13T02:08:54;12.75;;;2.45;;
18445;SDS011;9352;50.888;4.466;2023-01-13T02:11:29;19.35;;;2.53;;
18445;SDS011;9352;50.888;4.466;2023-01-13T02:14:15;19.42;;;2.47;;
18445;SDS011;9352;50.888;4.466;2023-01-13T02:16:46;11.50;;;2.40;;
18445;SDS011;9352;50.888;4.466;2023-01-13T02:19:24;14.43;;;2.15;;
18445;SDS011;9352;50.888;4.466;2023-01-13T02:22:14;9.93;;;2.42;;
18445;SDS011;9352;50.888;4.466;2023-01-13T02:25:03;12.18;;;2.17;;
18445;SDS011;9352;50.888;4.466;2023-01-13T02:28:03;8.15;;;1.83;;
18445;SDS011;9352;50.888;4.466;2023-01-13T02:30:48;13.15;;;2.65;;
18445;SDS011;9352;50.888;4.466;2023-01-13T02:33:38;22.60;;;2.90;;
18445;SDS011;9352;50.888;4.466;2023-01-13T02:36:19;18.80;;;2.88;;
18445;SDS011;9352;50.888;4.466;2023-01-13T02:38:56;16.15;;;2.13;;
18445;SDS011;9352;50.888;4.466;2023-01-13T02:41:28;10.00;;;2.42;;
18445;SDS011;9352;50.888;4.466;2023-01-13T02:44:19;14.73;;;2.50;;
18445;SDS011;9352;50.888;4.466;2023-01-13T02:46:52;15.25;;;2.70;;
18445;SDS011;9352;50.888;4.466;2023-01-13T02:49:24;16.83;;;2.72;;
18445;SDS011;9352;50.888;4.466;2023-01-13T02:51:58;15.93;;;2.75;;
18445;SDS011;9352;50.888;4.466;2023-01-13T02:54:28;19.80;;;3.25;;
18445;SDS011;9352;50.888;4.466;2023-01-13T02:56:58;10.80;;;2.15;;
18445;SDS011;9352;50.888;4.466;2023-01-13T02:59:28;15.45;;;2.83;;
18445;SDS011;9352;50.888;4.466;2023-01-13T03:02:00;15.23;;;2.50;;
18445;SDS011;9352;50.888;4.466;2023-01-13T03:04:45;13.52;;;2.58;;
18445;SDS011;9352;50.888;4.466;2023-01-13T03:07:23;11.52;;;2.30;;
18445;SDS011;9352;50.888;4.466;2023-01-13T03:10:05;18.20;;;2.50;;
18445;SDS011;9352;50.888;4.466;2023-01-13T03:12:43;12.40;;;2.28;;
18445;SDS011;9352;50.888;4.466;2023-01-13T03:15:16;15.68;;;2.30;;
18445;SDS011;9352;50.888;4.466;2023-01-13T03:17:52;14.43;;;2.33;;
18445;SDS011;9352;50.888;4.466;2023-01-13T03:20:27;12.48;;;2.58;;
18445;SDS011;9352;50.888;4.466;2023-01-13T03:23:02;12.13;;;2.13;;
18445;SDS011;9352;50.888;4.466;2023-01-13T03:25:33;11.70;;;1.90;;
18445;SDS011;9352;50.888;4.466;2023-01-13T03:28:04;19.10;;;2.38;;
18445;SDS011;9352;50.888;4.466;2023-01-13T03:30:35;17.58;;;2.38;;
18445;SDS011;9352;50.888;4.466;2023-01-13T03:33:10;11.65;;;2.60;;
18445;SDS011;9352;50.888;4.466;2023-01-13T03:35:41;15.35;;;2.45;;
18445;SDS011;9352;50.888;4.466;2023-01-13T03:38:11;9.23;;;2.28;;
18445;SDS011;9352;50.888;4.466;2023-01-13T03:40:43;6.78;;;1.85;;
18445;SDS011;9352;50.888;4.466;2023-01-13T03:43:13;9.55;;;1.98;;
18445;SDS011;9352;50.888;4.466;2023-01-13T03:46:01;17.52;;;2.42;;
18445;SDS011;9352;50.888;4.466;2023-01-13T03:48:34;15.90;;;2.15;;
18445;SDS011;9352;50.888;4.466;2023-01-13T03:51:06;11.43;;;2.10;;
18445;SDS011;9352;50.888;4.466;2023-01-13T03:53:37;11.23;;;1.95;;
18445;SDS011;9352;50.888;4.466;2023-01-13T03:56:06;11.43;;;2.20;;
18445;SDS011;9352;50.888;4.466;2023-01-13T03:58:38;14.18;;;1.83;;
18445;SDS011;9352;50.888;4.466;2023-01-13T04:01:10;8.93;;;1.88;;
18445;SDS011;9352;50.888;4.466;2023-01-13T04:03:42;8.20;;;1.90;;
18445;SDS011;9352;50.888;4.466;2023-01-13T04:06:15;11.48;;;1.80;;
18445;SDS011;9352;50.888;4.466;2023-01-13T04:08:48;6.65;;;1.70;;
18445;SDS011;9352;50.888;4.466;2023-01-13T04:11:21;11.65;;;1.98;;
18445;SDS011;9352;50.888;4.466;2023-01-13T04:13:54;11.13;;;1.88;;
18445;SDS011;9352;50.888;4.466;2023-01-13T04:16:22;10.52;;;1.77;;
18445;SDS011;9352;50.888;4.466;2023-01-13T04:18:51;7.53;;;1.83;;
18445;SDS011;9352;50.888;4.466;2023-01-13T04:21:18;11.13;;;2.42;;
18445;SDS011;9352;50.888;4.466;2023-01-13T04:23:45;15.18;;;2.33;;
18445;SDS011;9352;50.888;4.466;2023-01-13T04:26:15;10.68;;;1.92;;
18445;SDS011;9352;50.888;4.466;2023-01-13T04:28:43;14.77;;;1.75;;
18445;SDS011;9352;50.888;4.466;2023-01-13T04:31:10;14.43;;;2.83;;
18445;SDS011;9352;50.888;4.466;2023-01-13T04:33:37;11.13;;;1.83;;
18445;SDS011;9352;50.888;4.466;2023-01-13T04:36:06;12.05;;;2.38;;
18445;SDS011;9352;50.888;4.466;2023-01-13T04:38:33;14.38;;;2.35;;
18445;SDS011;9352;50.888;4.466;2023-01-13T04:41:00;9.07;;;1.98;;
18445;SDS011;9352;50.888;4.466;2023-01-13T04:43:27;9.30;;;1.80;;
18445;SDS011;9352;50.888;4.466;2023-01-13T04:45:54;12.02;;;2.05;;
18445;SDS011;9352;50.888;4.466;2023-01-13T04:48:21;12.88;;;1.92;;
18445;SDS011;9352;50.888;4.466;2023-01-13T04:50:48;12.23;;;2.17;;
18445;SDS011;9352;50.888;4.466;2023-01-13T04:53:16;12.77;;;2.00;;
18445;SDS011;9352;50.888;4.466;2023-01-13T04:55:43;8.60;;;1.88;;
18445;SDS011;9352;50.888;4.466;2023-01-13T04:58:11;9.35;;;1.75;;
18445;SDS011;9352;50.888;4.466;2023-01-13T05:00:38;11.15;;;1.80;;
18445;SDS011;9352;50.888;4.466;2023-01-13T05:03:05;15.40;;;2.53;;
18445;SDS011;9352;50.888;4.466;2023-01-13T05:05:32;9.73;;;1.83;;
18445;SDS011;9352;50.888;4.466;2023-01-13T05:07:59;15.52;;;1.92;;
18445;SDS011;9352;50.888;4.466;2023-01-13T05:10:28;9.00;;;2.20;;
18445;SDS011;9352;50.888;4.466;2023-01-13T05:12:55;9.63;;;2.15;;
18445;SDS011;9352;50.888;4.466;2023-01-13T05:15:40;9.25;;;1.83;;
18445;SDS011;9352;50.888;4.466;2023-01-13T05:18:24;7.53;;;1.65;;
18445;SDS011;9352;50.888;4.466;2023-01-13T05:20:52;12.10;;;2.30;;
18445;SDS011;9352;50.888;4.466;2023-01-13T05:23:19;12.52;;;1.70;;
18445;SDS011;9352;50.888;4.466;2023-01-13T05:26:05;13.73;;;2.00;;
18445;SDS011;9352;50.888;4.466;2023-01-13T05:28:32;9.30;;;1.65;;
18445;SDS011;9352;50.888;4.466;2023-01-13T05:31:00;8.32;;;1.77;;
18445;SDS011;9352;50.888;4.466;2023-01-13T05:33:27;7.90;;;1.63;;
18445;SDS011;9352;50.888;4.466;2023-01-13T05:35:54;12.18;;;2.25;;
18445;SDS011;9352;50.888;4.466;2023-01-13T05:38:23;12.93;;;2.00;;
18445;SDS011;9352;50.888;4.466;2023-01-13T05:40:50;18.00;;;2.33;;
18445;SDS011;9352;50.888;4.466;2023-01-13T05:43:35;11.30;;;2.05;;
18445;SDS011;9352;50.888;4.466;2023-01-13T05:46:03;13.48;;;2.03;;
18445;SDS011;9352;50.888;4.466;2023-01-13T05:48:32;14.80;;;2.03;;
18445;SDS011;9352;50.888;4.466;2023-01-13T05:51:00;11.43;;;1.98;;
18445;SDS011;9352;50.888;4.466;2023-01-13T05:53:28;16.85;;;2.40;;
18445;SDS011;9352;50.888;4.466;2023-01-13T05:55:56;10.63;;;2.22;;
18445;SDS011;9352;50.888;4.466;2023-01-13T05:58:23;11.98;;;1.73;;
18445;SDS011;9352;50.888;4.466;2023-01-13T06:00:57;14.80;;;2.30;;
18445;SDS011;9352;50.888;4.466;2023-01-13T06:03:25;15.43;;;1.83;;
18445;SDS011;9352;50.888;4.466;2023-01-13T06:05:52;12.70;;;2.00;;
18445;SDS011;9352;50.888;4.466;2023-01-13T06:08:22;12.05;;;1.65;;
18445;SDS011;9352;50.888;4.466;2023-01-13T06:10:49;14.60;;;1.98;;
18445;SDS011;9352;50.888;4.466;2023-01-13T06:13:16;10.40;;;1.95;;
18445;SDS011;9352;50.888;4.466;2023-01-13T06:15:43;14.90;;;2.58;;
18445;SDS011;9352;50.888;4.466;2023-01-13T06:18:11;10.00;;;1.60;;
18445;SDS011;9352;50.888;4.466;2023-01-13T06:20:38;12.13;;;2.22;;
18445;SDS011;9352;50.888;4.466;2023-01-13T06:23:06;13.93;;;2.03;;
18445;SDS011;9352;50.888;4.466;2023-01-13T06:25:37;11.93;;;2.15;;
18445;SDS011;9352;50.888;4.466;2023-01-13T06:28:09;12.10;;;2.38;;
18445;SDS011;9352;50.888;4.466;2023-01-13T06:30:37;15.73;;;2.47;;
18445;SDS011;9352;50.888;4.466;2023-01-13T06:33:07;17.67;;;3.15;;
18445;SDS011;9352;50.888;4.466;2023-01-13T06:35:40;16.15;;;2.72;;
18445;SDS011;9352;50.888;4.466;2023-01-13T06:38:11;20.10;;;2.60;;
18445;SDS011;9352;50.888;4.466;2023-01-13T06:40:40;17.17;;;2.88;;
18445;SDS011;9352;50.888;4.466;2023-01-13T06:43:08;25.17;;;2.90;;
18445;SDS011;9352;50.888;4.466;2023-01-13T06:45:40;25.92;;;3.28;;
18445;SDS011;9352;50.888;4.466;2023-01-13T06:48:10;19.08;;;3.03;;
18445;SDS011;9352;50.888;4.466;2023-01-13T06:50:37;18.65;;;3.05;;
18445;SDS011;9352;50.888;4.466;2023-01-13T06:53:05;24.73;;;3.10;;
18445;SDS011;9352;50.888;4.466;2023-01-13T06:55:32;26.67;;;3.92;;
18445;SDS011;9352;50.888;4.466;2023-01-13T06:57:59;19.80;;;3.22;;
18445;SDS011;9352;50.888;4.466;2023-01-13T07:00:26;22.40;;;3.05;;
18445;SDS011;9352;50.888;4.466;2023-01-13T07:02:53;24.08;;;2.97;;
18445;SDS011;9352;50.888;4.466;2023-01-13T07:05:29;27.02;;;2.85;;
18445;SDS011;9352;50.888;4.466;2023-01-13T07:07:56;27.95;;;2.78;;
18445;SDS011;9352;50.888;4.466;2023-01-13T07:10:24;27.30;;;2.83;;
18445;SDS011;9352;50.888;4.466;2023-01-13T07:12:51;26.08;;;3.20;;
18445;SDS011;9352;50.888;4.466;2023-01-13T07:15:36;26.40;;;4.13;;
18445;SDS011;9352;50.888;4.466;2023-01-13T07:18:03;19.02;;;2.92;;
18445;SDS011;9352;50.888;4.466;2023-01-13T07:20:30;22.13;;;3.80;;
18445;SDS011;9352;50.888;4.466;2023-01-13T07:22:57;18.63;;;2.97;;
18445;SDS011;9352;50.888;4.466;2023-01-13T07:25:26;18.98;;;3.35;;
18445;SDS011;9352;50.888;4.466;2023-01-13T07:27:54;19.23;;;3.38;;
18445;SDS011;9352;50.888;4.466;2023-01-13T07:30:22;31.95;;;3.65;;
18445;SDS011;9352;50.888;4.466;2023-01-13T07:32:49;18.88;;;3.53;;
18445;SDS011;9352;50.888;4.466;2023-01-13T07:35:16;23.02;;;3.47;;
18445;SDS011;9352;50.888;4.466;2023-01-13T07:37:47;27.35;;;3.67;;
18445;SDS011;9352;50.888;4.466;2023-01-13T07:40:14;21.58;;;3.45;;
18445;SDS011;9352;50.888;4.466;2023-01-13T07:42:42;18.10;;;2.85;;
18445;SDS011;9352;50.888;4.466;2023-01-13T07:45:27;31.10;;;2.95;;
18445;SDS011;9352;50.888;4.466;2023-01-13T07:47:53;34.10;;;4.15;;
18445;SDS011;9352;50.888;4.466;2023-01-13T07:50:20;19.80;;;3.45;;
18445;SDS011;9352;50.888;4.466;2023-01-13T07:52:48;21.83;;;3.20;;
18445;SDS011;9352;50.888;4.466;2023-01-13T07:55:15;26.65;;;3.80;;
18445;SDS011;9352;50.888;4.466;2023-01-13T07:57:43;23.42;;;3.55;;
18445;SDS011;9352;50.888;4.466;2023-01-13T08:00:11;24.42;;;3.30;;
18445;SDS011;9352;50.888;4.466;2023-01-13T08:02:38;24.40;;;3.17;;
18445;SDS011;9352;50.888;4.466;2023-01-13T08:05:06;16.98;;;3.33;;
18445;SDS011;9352;50.888;4.466;2023-01-13T08:07:33;23.38;;;3.03;;
18445;SDS011;9352;50.888;4.466;2023-01-13T08:10:00;13.77;;;2.83;;
18445;SDS011;9352;50.888;4.466;2023-01-13T08:12:27;25.38;;;3.50;;
18445;SDS011;9352;50.888;4.466;2023-01-13T08:15:14;30.02;;;3.42;;
18445;SDS011;9352;50.888;4.466;2023-01-13T08:17:41;20.25;;;3.40;;
18445;SDS011;9352;50.888;4.466;2023-01-13T08:20:08;20.50;;;2.92;;
18445;SDS011;9352;50.888;4.466;2023-01-13T08:22:36;22.95;;;3.60;;
18445;SDS011;9352;50.888;4.466;2023-01-13T08:25:03;20.58;;;3.42;;
18445;SDS011;9352;50.888;4.466;2023-01-13T08:27:31;19.80;;;3.33;;
18445;SDS011;9352;50.888;4.466;2023-01-13T08:29:58;20.60;;;3.30;;
18445;SDS011;9352;50.888;4.466;2023-01-13T08:32:26;23.23;;;3.53;;
18445;SDS011;9352;50.888;4.466;2023-01-13T08:34:53;18.50;;;3.10;;
18445;SDS011;9352;50.888;4.466;2023-01-13T08:37:20;16.92;;;3.15;;
18445;SDS011;9352;50.888;4.466;2023-01-13T08:39:47;17.45;;;3.38;;
18445;SDS011;9352;50.888;4.466;2023-01-13T08:42:14;28.40;;;3.65;;
18445;SDS011;9352;50.888;4.466;2023-01-13T08:44:41;20.67;;;3.20;;
18445;SDS011;9352;50.888;4.466;2023-01-13T08:47:08;25.73;;;3.22;;
18445;SDS011;9352;50.888;4.466;2023-01-13T08:49:37;29.33;;;2.90;;
18445;SDS011;9352;50.888;4.466;2023-01-13T08:52:04;17.50;;;3.28;;
18445;SDS011;9352;50.888;4.466;2023-01-13T08:54:31;17.52;;;3.03;;
18445;SDS011;9352;50.888;4.466;2023-01-13T08:56:57;22.35;;;3.88;;
18445;SDS011;9352;50.888;4.466;2023-01-13T08:59:27;20.48;;;3.22;;
18445;SDS011;9352;50.888;4.466;2023-01-13T09:01:54;20.40;;;2.60;;
18445;SDS011;9352;50.888;4.466;2023-01-13T09:04:25;26.98;;;3.35;;
18445;SDS011;9352;50.888;4.466;2023-01-13T09:06:54;26.45;;;4.07;;
18445;SDS011;9352;50.888;4.466;2023-01-13T09:09:22;20.15;;;3.22;;
18445;SDS011;9352;50.888;4.466;2023-01-13T09:11:51;23.73;;;3.83;;
18445;SDS011;9352;50.888;4.466;2023-01-13T09:14:36;22.30;;;3.35;;
18445;SDS011;9352;50.888;4.466;2023-01-13T09:17:04;18.65;;;2.72;;
18445;SDS011;9352;50.888;4.466;2023-01-13T09:19:32;17.33;;;3.05;;
18445;SDS011;9352;50.888;4.466;2023-01-13T09:22:01;22.17;;;3.63;;
18445;SDS011;9352;50.888;4.466;2023-01-13T09:24:28;25.88;;;3.20;;
18445;SDS011;9352;50.888;4.466;2023-01-13T09:26:55;21.35;;;3.58;;
18445;SDS011;9352;50.888;4.466;2023-01-13T09:29:22;22.15;;;2.70;;
18445;SDS011;9352;50.888;4.466;2023-01-13T09:31:49;23.45;;;3.30;;
18445;SDS011;9352;50.888;4.466;2023-01-13T09:34:17;21.45;;;3.10;;
18445;SDS011;9352;50.888;4.466;2023-01-13T09:37:18;24.38;;;3.88;;
18445;SDS011;9352;50.888;4.466;2023-01-13T09:39:45;22.20;;;3.35;;
18445;SDS011;9352;50.888;4.466;2023-01-13T09:42:13;34.72;;;4.25;;
18445;SDS011;9352;50.888;4.466;2023-01-13T09:45:05;35.80;;;3.97;;
18445;SDS011;9352;50.888;4.466;2023-01-13T09:47:37;30.92;;;3.90;;
18445;SDS011;9352;50.888;4.466;2023-01-13T09:50:16;21.98;;;3.45;;
18445;SDS011;9352;50.888;4.466;2023-01-13T09:52:48;32.10;;;3.58;;
18445;SDS011;9352;50.888;4.466;2023-01-13T09:55:16;26.02;;;3.80;;
18445;SDS011;9352;50.888;4.466;2023-01-13T09:57:44;23.17;;;2.90;;
18445;SDS011;9352;50.888;4.466;2023-01-13T10:00:12;20.92;;;3.53;;
18445;SDS011;9352;50.888;4.466;2023-01-13T10:02:53;24.05;;;3.58;;
18445;SDS011;9352;50.888;4.466;2023-01-13T10:05:31;25.02;;;4.18;;
18445;SDS011;9352;50.888;4.466;2023-01-13T10:08:04;27.77;;;3.35;;
18445;SDS011;9352;50.888;4.466;2023-01-13T10:10:36;22.40;;;3.42;;
18445;SDS011;9352;50.888;4.466;2023-01-13T10:13:10;24.88;;;3.40;;
18445;SDS011;9352;50.888;4.466;2023-01-13T10:15:45;20.92;;;3.55;;
18445;SDS011;9352;50.888;4.466;2023-01-13T10:18:24;27.40;;;3.65;;
18445;SDS011;9352;50.888;4.466;2023-01-13T10:20:59;21.63;;;3.40;;
18445;SDS011;9352;50.888;4.466;2023-01-13T10:23:43;32.22;;;4.75;;
18445;SDS011;9352;50.888;4.466;2023-01-13T10:26:24;28.50;;;3.53;;
18445;SDS011;9352;50.888;4.466;2023-01-13T10:29:16;28.27;;;3.78;;
18445;SDS011;9352;50.888;4.466;2023-01-13T10:31:45;29.45;;;4.90;;
18445;SDS011;9352;50.888;4.466;2023-01-13T10:34:12;30.77;;;4.45;;
18445;SDS011;9352;50.888;4.466;2023-01-13T10:36:45;25.45;;;4.20;;
18445;SDS011;9352;50.888;4.466;2023-01-13T10:39:23;29.00;;;3.45;;
18445;SDS011;9352;50.888;4.466;2023-01-13T10:41:59;24.92;;;3.20;;
18445;SDS011;9352;50.888;4.466;2023-01-13T10:44:27;21.98;;;3.75;;
18445;SDS011;9352;50.888;4.466;2023-01-13T10:46:55;31.38;;;4.38;;
18445;SDS011;9352;50.888;4.466;2023-01-13T10:49:27;20.60;;;3.50;;
18445;SDS011;9352;50.888;4.466;2023-01-13T10:51:56;28.15;;;4.28;;
18445;SDS011;9352;50.888;4.466;2023-01-13T10:54:25;24.90;;;4.00;;
18445;SDS011;9352;50.888;4.466;2023-01-13T10:59:43;24.15;;;3.22;;
18445;SDS011;9352;50.888;4.466;2023-01-13T11:02:18;32.47;;;3.65;;
18445;SDS011;9352;50.888;4.466;2023-01-13T11:04:57;23.15;;;3.63;;
18445;SDS011;9352;50.888;4.466;2023-01-13T11:07:28;24.42;;;3.58;;
18445;SDS011;9352;50.888;4.466;2023-01-13T11:10:04;35.38;;;4.57;;
18445;SDS011;9352;50.888;4.466;2023-01-13T11:12:45;36.85;;;4.82;;
18445;SDS011;9352;50.888;4.466;2023-01-13T11:15:18;26.13;;;4.25;;
18445;SDS011;9352;50.888;4.466;2023-01-13T11:17:50;28.13;;;3.83;;
18445;SDS011;9352;50.888;4.466;2023-01-13T11:20:26;35.47;;;3.88;;
18445;SDS011;9352;50.888;4.466;2023-01-13T11:22:58;25.30;;;3.83;;
18445;SDS011;9352;50.888;4.466;2023-01-13T11:25:30;26.52;;;4.13;;
18445;SDS011;9352;50.888;4.466;2023-01-13T11:28:11;33.55;;;4.18;;
18445;SDS011;9352;50.888;4.466;2023-01-13T11:30:48;30.05;;;3.70;;
18445;SDS011;9352;50.888;4.466;2023-01-13T11:33:28;29.25;;;3.45;;
18445;SDS011;9352;50.888;4.466;2023-01-13T11:36:05;23.98;;;3.65;;
18445;SDS011;9352;50.888;4.466;2023-01-13T11:38:39;33.17;;;4.32;;
18445;SDS011;9352;50.888;4.466;2023-01-13T11:41:14;20.17;;;3.78;;
18445;SDS011;9352;50.888;4.466;2023-01-13T11:43:59;19.52;;;3.95;;
18445;SDS011;9352;50.888;4.466;2023-01-13T11:46:38;24.02;;;3.40;;
18445;SDS011;9352;50.888;4.466;2023-01-13T11:49:06;29.35;;;3.78;;
18445;SDS011;9352;50.888;4.466;2023-01-13T11:51:42;24.42;;;4.65;;
18445;SDS011;9352;50.888;4.466;2023-01-13T11:54:28;16.08;;;3.55;;
18445;SDS011;9352;50.888;4.466;2023-01-13T11:57:09;26.45;;;3.92;;
18445;SDS011;9352;50.888;4.466;2023-01-13T12:00:01;16.98;;;3.58;;
18445;SDS011;9352;50.888;4.466;2023-01-13T12:02:43;17.90;;;3.00;;
18445;SDS011;9352;50.888;4.466;2023-01-13T12:05:21;29.20;;;4.15;;
18445;SDS011;9352;50.888;4.466;2023-01-13T12:07:57;25.25;;;4.00;;
18445;SDS011;9352;50.888;4.466;2023-01-13T12:10:43;23.15;;;3.67;;
18445;SDS011;9352;50.888;4.466;2023-01-13T12:13:27;18.10;;;3.25;;
18445;SDS011;9352;50.888;4.466;2023-01-13T12:16:10;22.55;;;3.25;;
18445;SDS011;9352;50.888;4.466;2023-01-13T12:18:58;24.33;;;3.55;;
18445;SDS011;9352;50.888;4.466;2023-01-13T12:21:37;21.85;;;3.20;;
18445;SDS011;9352;50.888;4.466;2023-01-13T12:24:10;21.30;;;3.20;;
18445;SDS011;9352;50.888;4.466;2023-01-13T12:26:45;21.98;;;3.70;;
18445;SDS011;9352;50.888;4.466;2023-01-13T12:29:18;16.80;;;3.22;;
18445;SDS011;9352;50.888;4.466;2023-01-13T12:31:51;21.30;;;3.10;;
18445;SDS011;9352;50.888;4.466;2023-01-13T12:34:21;24.20;;;2.55;;
18445;SDS011;9352;50.888;4.466;2023-01-13T12:36:57;24.63;;;3.58;;
18445;SDS011;9352;50.888;4.466;2023-01-13T12:39:36;24.67;;;3.20;;
18445;SDS011;9352;50.888;4.466;2023-01-13T12:42:13;26.45;;;3.95;;
18445;SDS011;9352;50.888;4.466;2023-01-13T12:45:15;13.02;;;2.92;;
18445;SDS011;9352;50.888;4.466;2023-01-13T12:47:52;14.25;;;3.03;;
18445;SDS011;9352;50.888;4.466;2023-01-13T12:50:39;21.75;;;2.80;;
18445;SDS011;9352;50.888;4.466;2023-01-13T12:53:27;18.92;;;3.45;;
18445;SDS011;9352;50.888;4.466;2023-01-13T12:58:47;18.92;;;2.80;;
18445;SDS011;9352;50.888;4.466;2023-01-13T13:01:15;16.15;;;3.33;;
18445;SDS011;9352;50.888;4.466;2023-01-13T13:03:50;17.90;;;2.78;;
18445;SDS011;9352;50.888;4.466;2023-01-13T13:06:36;17.85;;;2.90;;
18445;SDS011;9352;50.888;4.466;2023-01-13T13:09:05;26.35;;;3.88;;
18445;SDS011;9352;50.888;4.466;2023-01-13T13:11:44;23.00;;;2.88;;
18445;SDS011;9352;50.888;4.466;2023-01-13T13:17:42;17.70;;;2.80;;
18445;SDS011;9352;50.888;4.466;2023-01-13T13:23:25;15.23;;;2.90;;
18445;SDS011;9352;50.888;4.466;2023-01-13T13:25:58;14.15;;;2.85;;
18445;SDS011;9352;50.888;4.466;2023-01-13T13:28:29;22.50;;;3.17;;
18445;SDS011;9352;50.888;4.466;2023-01-13T13:31:08;15.13;;;2.97;;
18445;SDS011;9352;50.888;4.466;2023-01-13T13:33:56;22.23;;;3.92;;
18445;SDS011;9352;50.888;4.466;2023-01-13T13:36:40;22.55;;;3.15;;
18445;SDS011;9352;50.888;4.466;2023-01-13T13:39:17;20.75;;;3.65;;
18445;SDS011;9352;50.888;4.466;2023-01-13T13:42:09;20.00;;;3.75;;
18445;SDS011;9352;50.888;4.466;2023-01-13T13:44:55;23.00;;;3.47;;
18445;SDS011;9352;50.888;4.466;2023-01-13T13:47:42;22.55;;;3.28;;
18445;SDS011;9352;50.888;4.466;2023-01-13T13:50:13;16.65;;;2.97;;
18445;SDS011;9352;50.888;4.466;2023-01-13T13:52:44;17.50;;;2.83;;
18445;SDS011;9352;50.888;4.466;2023-01-13T13:55:20;23.25;;;3.58;;
18445;SDS011;9352;50.888;4.466;2023-01-13T13:57:48;14.45;;;2.88;;
18445;SDS011;9352;50.888;4.466;2023-01-13T14:00:21;20.35;;;3.20;;
18445;SDS011;9352;50.888;4.466;2023-01-13T14:02:50;12.43;;;2.47;;
18445;SDS011;9352;50.888;4.466;2023-01-13T14:05:21;30.35;;;2.70;;
18445;SDS011;9352;50.888;4.466;2023-01-13T14:07:50;20.92;;;4.25;;
18445;SDS011;9352;50.888;4.466;2023-01-13T14:10:23;17.80;;;2.83;;
18445;SDS011;9352;50.888;4.466;2023-01-13T14:12:53;19.73;;;2.85;;
18445;SDS011;9352;50.888;4.466;2023-01-13T14:15:24;14.27;;;2.88;;
18445;SDS011;9352;50.888;4.466;2023-01-13T14:17:55;22.00;;;3.03;;
18445;SDS011;9352;50.888;4.466;2023-01-13T14:20:23;13.57;;;3.03;;
18445;SDS011;9352;50.888;4.466;2023-01-13T14:22:52;22.48;;;3.50;;
18445;SDS011;9352;50.888;4.466;2023-01-13T14:25:31;16.00;;;2.75;;
18445;SDS011;9352;50.888;4.466;2023-01-13T14:28:07;20.05;;;2.65;;
18445;SDS011;9352;50.888;4.466;2023-01-13T14:30:44;16.65;;;2.72;;
18445;SDS011;9352;50.888;4.466;2023-01-13T14:33:12;12.15;;;2.65;;
18445;SDS011;9352;50.888;4.466;2023-01-13T14:38:37;14.52;;;3.17;;
18445;SDS011;9352;50.888;4.466;2023-01-13T14:41:08;15.70;;;2.38;;
18445;SDS011;9352;50.888;4.466;2023-01-13T14:43:51;19.17;;;3.20;;
18445;SDS011;9352;50.888;4.466;2023-01-13T14:46:21;15.45;;;3.08;;
18445;SDS011;9352;50.888;4.466;2023-01-13T14:48:49;23.85;;;3.83;;
18445;SDS011;9352;50.888;4.466;2023-01-13T14:51:26;11.07;;;2.83;;
18445;SDS011;9352;50.888;4.466;2023-01-13T14:53:54;20.88;;;3.08;;
18445;SDS011;9352;50.888;4.466;2023-01-13T14:56:36;15.05;;;2.38;;
18445;SDS011;9352;50.888;4.466;2023-01-13T15:01:58;21.88;;;3.20;;
18445;SDS011;9352;50.888;4.466;2023-01-13T15:04:26;12.88;;;2.70;;
18445;SDS011;9352;50.888;4.466;2023-01-13T15:06:58;19.65;;;2.88;;
18445;SDS011;9352;50.888;4.466;2023-01-13T15:09:27;21.20;;;2.78;;
18445;SDS011;9352;50.888;4.466;2023-01-13T15:11:58;15.43;;;2.83;;
18445;SDS011;9352;50.888;4.466;2023-01-13T15:14:42;18.65;;;2.70;;
18445;SDS011;9352;50.888;4.466;2023-01-13T15:17:10;24.10;;;3.15;;
18445;SDS011;9352;50.888;4.466;2023-01-13T15:19:42;14.48;;;2.78;;
18445;SDS011;9352;50.888;4.466;2023-01-13T15:22:10;16.90;;;3.10;;
18445;SDS011;9352;50.888;4.466;2023-01-13T15:24:37;10.85;;;2.38;;
18445;SDS011;9352;50.888;4.466;2023-01-13T15:27:11;18.27;;;2.70;;
18445;SDS011;9352;50.888;4.466;2023-01-13T15:29:42;23.45;;;3.63;;
18445;SDS011;9352;50.888;4.466;2023-01-13T15:32:10;8.73;;;2.03;;
18445;SDS011;9352;50.888;4.466;2023-01-13T15:34:43;22.73;;;2.60;;